Buoy 62910

sailwx.info

Track history (hours):
 
Tides and Currents Weather Stations Pressure Air Temp Water Temp Dewpoint Dewpoint Depression Visibility Wind Speed Wind Dir Waves Ship Positions

Drifting buoy 62910

Last reported at 2015-Sep-21 17:37 UTC. Time now 2016-Apr-30 11:16 UTC.
Position N 41°24' E 009°15'.
Warning: this ship's position is months out of date.

Water temperature 21.8 ° C

Date/timePositionNaut miles runAvg speedWind from/ knotsBaromVisibWave heightAir tempDewpointWater temp
2015-Sep-21 17:37N 41°24' E 009°15'0 0.0 21.8
2015-Sep-21 17:03N 41°24' E 009°15'0 0.3 22.5
2015-Sep-21 16:03N 41°24' E 009°14'0 0.1 24.0
2015-Sep-21 15:21N 41°24' E 009°14'0 0.0
2015-Sep-21 14:51N 41°24' E 009°14'0 0.0 26.3
2015-Sep-21 13:10N 41°24' E 009°14'0 0.0 27.6
2015-Sep-21 08:55N 41°24' E 009°14'0 0.0 23.5
2015-Sep-21 05:31N 41°24' E 009°14'0 0.0 17.9
2015-Sep-20 19:48N 41°24' E 009°14'0 0.1 20.9
2015-Sep-20 18:10N 41°24' E 009°14'0 0.0 22.8
2015-Sep-20 10:05N 41°24' E 009°14'0 0.0 25.1
2015-Sep-20 06:01N 41°24' E 009°14'0 0.2 20.1
2015-Sep-20 05:06N 41°24' E 009°14'0 0.0 20.1
2015-Sep-20 01:55N 41°24' E 009°14'0 0.0 20.8
2015-Sep-19 21:46N 41°24' E 009°14'0 0.0
2015-Sep-19 21:04N 41°24' E 009°14'0 0.0
2015-Sep-19 20:02N 41°24' E 009°14'0 0.0 20.9
2015-Sep-19 18:44N 41°24' E 009°14'1 0.6 21.4
2015-Sep-19 17:05N 41°24' E 009°16'0 0.0
2015-Sep-19 16:53N 41°24' E 009°16'1 0.9 23.2
2015-Sep-19 15:44N 41°24' E 009°14'0 0.0 25.1
2015-Sep-19 09:42N 41°24' E 009°14'0 0.1 25.2
2015-Sep-19 05:31N 41°24' E 009°15'0 0.2 20.0
2015-Sep-19 04:52N 41°24' E 009°15'0 0.7 19.8
2015-Sep-19 04:15N 41°24' E 009°14'0 0.0
2015-Sep-19 02:06N 41°24' E 009°14'0 0.0 20.3
2015-Sep-18 15:53N 41°24' E 009°14'0 0.0 26.2
2015-Sep-18 12:00N 41°24' E 009°14'0 0.0
2015-Sep-18 09:56N 41°24' E 009°14'0 0.2 25.8
2015-Sep-18 09:03N 41°24' E 009°14'0 0.0
2015-Sep-18 06:10N 41°24' E 009°14'0 0.3 21.9
2015-Sep-18 05:54N 41°24' E 009°14'0 0.0 21.9
2015-Sep-17 20:50N 41°24' E 009°14'0 0.2 24.2
2015-Sep-17 19:59N 41°24' E 009°15'0 0.1
2015-Sep-17 16:02N 41°24' E 009°14'0 0.0 28.9
2015-Sep-17 13:55N 41°24' E 009°14'0 0.0 31.0
2015-Sep-17 13:51N 41°24' E 009°14'0 0.1 31.0
2015-Sep-17 12:10N 41°24' E 009°15'0 0.0 27.9
2015-Sep-17 10:21N 41°24' E 009°15'0 0.0 24.0
2015-Sep-17 09:28N 41°24' E 009°15'0 2.2 24.4
2015-Sep-17 09:23N 41°24' E 009°15'0 0.0 24.4
2015-Sep-17 08:40N 41°24' E 009°15'1 0.9 25.1
2015-Sep-17 07:47N 41°23' E 009°15'118.6 26.1
2015-Sep-17 07:44N 41°24' E 009°14'0 0.0
2015-Sep-17 06:17N 41°24' E 009°14'0 0.0 23.9
2015-Sep-17 05:51N 41°24' E 009°14'0 0.0 22.7
2015-Sep-17 04:42N 41°24' E 009°14'0 1.1 22.7
2015-Sep-17 04:36N 41°24' E 009°14'0 0.0 22.7
2015-Sep-17 04:12N 41°24' E 009°14'0 0.0 22.5
2015-Sep-17 02:29N 41°24' E 009°14'0 0.2 20.7
2015-Sep-17 00:47N 41°24' E 009°15'0 0.1 22.3
2015-Sep-16 21:04N 41°24' E 009°14'0 0.0 23.2
2015-Sep-16 17:00N 41°24' E 009°14'0 0.7 27.4
2015-Sep-16 16:55N 41°24' E 009°14'0 0.0 27.5
2015-Sep-16 14:06N 41°24' E 009°14'0 0.0 33.0
2015-Sep-16 09:02N 41°24' E 009°14'0 0.1 24.7
2015-Sep-16 05:01N 41°24' E 009°15'0 0.0 21.2
2015-Sep-16 04:53N 41°24' E 009°15'0 0.0 21.1
2015-Sep-16 04:45N 41°24' E 009°15'0 0.1 21.1
2015-Sep-16 03:07N 41°24' E 009°14'1 0.3
2015-Sep-16 00:58N 41°24' E 009°15'0 0.0
2015-Sep-15 20:47N 41°24' E 009°15'1 0.7
2015-Sep-15 19:50N 41°24' E 009°14'0 0.2
2015-Sep-15 19:04N 41°24' E 009°14'0 0.3 25.1
2015-Sep-15 17:27N 41°24' E 009°15'0 0.1 26.6
2015-Sep-15 10:11N 41°24' E 009°14'0 3.1 27.4
2015-Sep-15 10:04N 41°24' E 009°15'0 0.1 27.4
2015-Sep-15 05:05N 41°24' E 009°14'0 0.0 19.8
2015-Sep-15 01:08N 41°24' E 009°14'0 0.0 21.6
2015-Sep-14 21:49N 41°24' E 009°15'0 0.0 23.2
2015-Sep-14 21:01N 41°24' E 009°15'0 0.2 23.4
2015-Sep-14 20:06N 41°24' E 009°14'1 0.3 24.2
2015-Sep-14 18:01N 41°24' E 009°15'1 0.2 26.0
2015-Sep-14 14:57N 41°24' E 009°14'0 0.1
2015-Sep-14 09:44N 41°24' E 009°14'1 7.6 24.7
2015-Sep-14 09:39N 41°24' E 009°15'0 0.1 24.7
2015-Sep-14 08:48N 41°24' E 009°15'0 4.9 24.2
2015-Sep-14 08:44N 41°24' E 009°14'0 0.0
2015-Sep-14 05:53N 41°24' E 009°14'0 0.9 23.8
2015-Sep-14 05:48N 41°24' E 009°14'0 0.1 23.8
2015-Sep-14 05:16N 41°24' E 009°14'0 0.1 23.3
2015-Sep-14 04:09N 41°24' E 009°14'0 0.3 22.3
2015-Sep-14 03:35N 41°24' E 009°14'0 0.0 21.9
2015-Sep-14 03:03N 41°24' E 009°14'0 0.0 21.9
2015-Sep-14 01:23N 41°24' E 009°14'119.9 22.8
2015-Sep-14 01:19N 41°24' E 009°16'1 0.2 22.8
2015-Sep-13 19:43N 41°24' E 009°14'0 0.0
2015-Sep-13 18:47N 41°24' E 009°14'0 0.0 25.4
2015-Sep-13 18:31N 41°24' E 009°14'0 0.1 25.1
2015-Sep-13 17:38N 41°24' E 009°14'0 0.2 25.7
2015-Sep-13 16:56N 41°24' E 009°15'0 2.7 26.4
2015-Sep-13 16:52N 41°24' E 009°14'0 0.0 26.4
2015-Sep-13 16:01N 41°24' E 009°14'0 0.1 26.8
2015-Sep-13 15:13N 41°24' E 009°14'0 7.6 27.0
2015-Sep-13 15:10N 41°24' E 009°14'0 0.0 27.0
2015-Sep-13 13:01N 41°24' E 009°14'1 9.9 26.6
2015-Sep-13 12:55N 41°24' E 009°15'0 0.0 26.9
2015-Sep-13 11:18N 41°24' E 009°15'0 0.0 26.4
2015-Sep-13 10:00N 41°24' E 009°15'0 0.0 25.0
2015-Sep-13 09:11N 41°24' E 009°15'0 0.3 24.0
2015-Sep-13 08:20N 41°24' E 009°15'0 0.1 24.3
2015-Sep-13 06:20N 41°24' E 009°15'0 0.5 24.7
2015-Sep-13 05:23N 41°24' E 009°14'0 0.1 24.1
2015-Sep-13 04:37N 41°24' E 009°14'0 0.0 24.1
2015-Sep-13 03:44N 41°24' E 009°14'0 0.0 24.1
2015-Sep-13 03:14N 41°24' E 009°14'0 0.6 24.0
2015-Sep-13 03:07N 41°24' E 009°14'0 0.0 24.0
2015-Sep-12 20:49N 41°24' E 009°14'0 0.0 23.6
2015-Sep-12 20:10N 41°24' E 009°14'0 1.8 24.8
2015-Sep-12 20:01N 41°24' E 009°15'0 0.4 24.8
2015-Sep-12 19:08N 41°24' E 009°15'0 0.0 25.0
2015-Sep-12 18:06N 41°24' E 009°15'0 0.4 24.8
2015-Sep-12 17:06N 41°24' E 009°15'0 0.2 24.8
2015-Sep-12 14:50N 41°24' E 009°16'0 0.0 24.7
2015-Sep-12 14:45N 41°24' E 009°16'118.1
2015-Sep-12 14:42N 41°25' E 009°17'0 0.0 24.7
2015-Sep-12 13:41N 41°25' E 009°17'0 0.0 24.6
2015-Sep-12 13:17N 41°25' E 009°17'0 0.0 24.6
2015-Sep-12 13:08N 41°25' E 009°17'0 0.0 24.6
2015-Sep-12 13:03N 41°25' E 009°17'0 0.0 24.6
2015-Sep-12 11:31N 41°25' E 009°17'0 7.0
2015-Sep-12 11:27N 41°25' E 009°17'0 0.0 35.5
2015-Sep-12 11:10N 41°25' E 009°17'0 0.2 24.5
2015-Sep-12 10:27N 41°25' E 009°17'112.6 24.6
2015-Sep-12 10:24N 41°24' E 009°18'0 0.0 24.6
2015-Sep-12 09:32N 41°24' E 009°18'1 0.5 24.6
2015-Sep-12 06:43N 41°23' E 009°19'1 0.8 24.5
2015-Sep-12 05:02N 41°22' E 009°20'1 0.7 24.7
2015-Sep-12 04:00N 41°22' E 009°21'0 1.2 24.7
2015-Sep-12 03:57N 41°21' E 009°21'0 1.1 24.7
2015-Sep-12 03:53N 41°21' E 009°21'3 0.4 24.7
2015-Sep-11 22:10N 41°21' E 009°24'0 3.6 24.8
2015-Sep-11 22:03N 41°21' E 009°25'0 0.4 24.8
2015-Sep-11 21:07N 41°21' E 009°25'2 0.6 24.9
2015-Sep-11 17:54N 41°22' E 009°27'   24.9
Track history (hours):
 
Tides and Currents Weather Stations Pressure Air Temp Water Temp Dewpoint Dewpoint Depression Visibility Wind Speed Wind Dir Waves Ship Positions

Drifting buoy 62910

Last reported at 2015-Sep-21 17:37 UTC. Time now 2016-Apr-30 11:16 UTC.
Position N 41°24' E 009°15'.
Warning: this ship's position is months out of date.

Water temperature 21.8 ° C

Date/timePositionNaut miles runAvg speedWind from/ knotsBaromVisibWave heightAir tempDewpointWater temp
2015-Sep-21 17:37N 41°24' E 009°15'0 0.0 21.8
2015-Sep-21 17:03N 41°24' E 009°15'0 0.3 22.5
2015-Sep-21 16:03N 41°24' E 009°14'0 0.1 24.0
2015-Sep-21 15:21N 41°24' E 009°14'0 0.0
2015-Sep-21 14:51N 41°24' E 009°14'0 0.0 26.3
2015-Sep-21 13:10N 41°24' E 009°14'0 0.0 27.6
2015-Sep-21 08:55N 41°24' E 009°14'0 0.0 23.5
2015-Sep-21 05:31N 41°24' E 009°14'0 0.0 17.9
2015-Sep-20 19:48N 41°24' E 009°14'0 0.1 20.9
2015-Sep-20 18:10N 41°24' E 009°14'0 0.0 22.8
2015-Sep-20 10:05N 41°24' E 009°14'0 0.0 25.1
2015-Sep-20 06:01N 41°24' E 009°14'0 0.2 20.1
2015-Sep-20 05:06N 41°24' E 009°14'0 0.0 20.1
2015-Sep-20 01:55N 41°24' E 009°14'0 0.0 20.8
2015-Sep-19 21:46N 41°24' E 009°14'0 0.0
2015-Sep-19 21:04N 41°24' E 009°14'0 0.0
2015-Sep-19 20:02N 41°24' E 009°14'0 0.0 20.9
2015-Sep-19 18:44N 41°24' E 009°14'1 0.6 21.4
2015-Sep-19 17:05N 41°24' E 009°16'0 0.0
2015-Sep-19 16:53N 41°24' E 009°16'1 0.9 23.2
2015-Sep-19 15:44N 41°24' E 009°14'0 0.0 25.1
2015-Sep-19 09:42N 41°24' E 009°14'0 0.1 25.2
2015-Sep-19 05:31N 41°24' E 009°15'0 0.2 20.0
2015-Sep-19 04:52N 41°24' E 009°15'0 0.7 19.8
2015-Sep-19 04:15N 41°24' E 009°14'0 0.0
2015-Sep-19 02:06N 41°24' E 009°14'0 0.0 20.3
2015-Sep-18 15:53N 41°24' E 009°14'0 0.0 26.2
2015-Sep-18 12:00N 41°24' E 009°14'0 0.0
2015-Sep-18 09:56N 41°24' E 009°14'0 0.2 25.8
2015-Sep-18 09:03N 41°24' E 009°14'0 0.0
2015-Sep-18 06:10N 41°24' E 009°14'0 0.3 21.9
2015-Sep-18 05:54N 41°24' E 009°14'0 0.0 21.9
2015-Sep-17 20:50N 41°24' E 009°14'0 0.2 24.2
2015-Sep-17 19:59N 41°24' E 009°15'0 0.1
2015-Sep-17 16:02N 41°24' E 009°14'0 0.0 28.9
2015-Sep-17 13:55N 41°24' E 009°14'0 0.0 31.0
2015-Sep-17 13:51N 41°24' E 009°14'0 0.1 31.0
2015-Sep-17 12:10N 41°24' E 009°15'0 0.0 27.9
2015-Sep-17 10:21N 41°24' E 009°15'0 0.0 24.0
2015-Sep-17 09:28N 41°24' E 009°15'0 2.2 24.4
2015-Sep-17 09:23N 41°24' E 009°15'0 0.0 24.4
2015-Sep-17 08:40N 41°24' E 009°15'1 0.9 25.1
2015-Sep-17 07:47N 41°23' E 009°15'118.6 26.1
2015-Sep-17 07:44N 41°24' E 009°14'0 0.0
2015-Sep-17 06:17N 41°24' E 009°14'0 0.0 23.9
2015-Sep-17 05:51N 41°24' E 009°14'0 0.0 22.7
2015-Sep-17 04:42N 41°24' E 009°14'0 1.1 22.7
2015-Sep-17 04:36N 41°24' E 009°14'0 0.0 22.7
2015-Sep-17 04:12N 41°24' E 009°14'0 0.0 22.5
2015-Sep-17 02:29N 41°24' E 009°14'0 0.2 20.7
2015-Sep-17 00:47N 41°24' E 009°15'0 0.1 22.3
2015-Sep-16 21:04N 41°24' E 009°14'0 0.0 23.2
2015-Sep-16 17:00N 41°24' E 009°14'0 0.7 27.4
2015-Sep-16 16:55N 41°24' E 009°14'0 0.0 27.5
2015-Sep-16 14:06N 41°24' E 009°14'0 0.0 33.0
2015-Sep-16 09:02N 41°24' E 009°14'0 0.1 24.7
2015-Sep-16 05:01N 41°24' E 009°15'0 0.0 21.2
2015-Sep-16 04:53N 41°24' E 009°15'0 0.0 21.1
2015-Sep-16 04:45N 41°24' E 009°15'0 0.1 21.1
2015-Sep-16 03:07N 41°24' E 009°14'1 0.3
2015-Sep-16 00:58N 41°24' E 009°15'0 0.0
2015-Sep-15 20:47N 41°24' E 009°15'1 0.7
2015-Sep-15 19:50N 41°24' E 009°14'0 0.2
2015-Sep-15 19:04N 41°24' E 009°14'0 0.3 25.1
2015-Sep-15 17:27N 41°24' E 009°15'0 0.1 26.6
2015-Sep-15 10:11N 41°24' E 009°14'0 3.1 27.4
2015-Sep-15 10:04N 41°24' E 009°15'0 0.1 27.4
2015-Sep-15 05:05N 41°24' E 009°14'0 0.0 19.8
2015-Sep-15 01:08N 41°24' E 009°14'0 0.0 21.6
2015-Sep-14 21:49N 41°24' E 009°15'0 0.0 23.2
2015-Sep-14 21:01N 41°24' E 009°15'0 0.2 23.4
2015-Sep-14 20:06N 41°24' E 009°14'1 0.3 24.2
2015-Sep-14 18:01N 41°24' E 009°15'1 0.2 26.0
2015-Sep-14 14:57N 41°24' E 009°14'0 0.1
2015-Sep-14 09:44N 41°24' E 009°14'1 7.6 24.7
2015-Sep-14 09:39N 41°24' E 009°15'0 0.1 24.7
2015-Sep-14 08:48N 41°24' E 009°15'0 4.9 24.2
2015-Sep-14 08:44N 41°24' E 009°14'0 0.0
2015-Sep-14 05:53N 41°24' E 009°14'0 0.9 23.8
2015-Sep-14 05:48N 41°24' E 009°14'0 0.1 23.8
2015-Sep-14 05:16N 41°24' E 009°14'0 0.1 23.3
2015-Sep-14 04:09N 41°24' E 009°14'0 0.3 22.3
2015-Sep-14 03:35N 41°24' E 009°14'0 0.0 21.9
2015-Sep-14 03:03N 41°24' E 009°14'0 0.0 21.9
2015-Sep-14 01:23N 41°24' E 009°14'119.9 22.8
2015-Sep-14 01:19N 41°24' E 009°16'1 0.2 22.8
2015-Sep-13 19:43N 41°24' E 009°14'0 0.0
2015-Sep-13 18:47N 41°24' E 009°14'0 0.0 25.4
2015-Sep-13 18:31N 41°24' E 009°14'0 0.1 25.1
2015-Sep-13 17:38N 41°24' E 009°14'0 0.2 25.7
2015-Sep-13 16:56N 41°24' E 009°15'0 2.7 26.4
2015-Sep-13 16:52N 41°24' E 009°14'0 0.0 26.4
2015-Sep-13 16:01N 41°24' E 009°14'0 0.1 26.8
2015-Sep-13 15:13N 41°24' E 009°14'0 7.6 27.0
2015-Sep-13 15:10N 41°24' E 009°14'0 0.0 27.0
2015-Sep-13 13:01N 41°24' E 009°14'1 9.9 26.6
2015-Sep-13 12:55N 41°24' E 009°15'0 0.0 26.9
2015-Sep-13 11:18N 41°24' E 009°15'0 0.0 26.4
2015-Sep-13 10:00N 41°24' E 009°15'0 0.0 25.0
2015-Sep-13 09:11N 41°24' E 009°15'0 0.3 24.0
2015-Sep-13 08:20N 41°24' E 009°15'0 0.1 24.3
2015-Sep-13 06:20N 41°24' E 009°15'0 0.5 24.7
2015-Sep-13 05:23N 41°24' E 009°14'0 0.1 24.1
2015-Sep-13 04:37N 41°24' E 009°14'0 0.0 24.1
2015-Sep-13 03:44N 41°24' E 009°14'0 0.0 24.1
2015-Sep-13 03:14N 41°24' E 009°14'0 0.6 24.0
2015-Sep-13 03:07N 41°24' E 009°14'0 0.0 24.0
2015-Sep-12 20:49N 41°24' E 009°14'0 0.0 23.6
2015-Sep-12 20:10N 41°24' E 009°14'0 1.8 24.8
2015-Sep-12 20:01N 41°24' E 009°15'0 0.4 24.8
2015-Sep-12 19:08N 41°24' E 009°15'0 0.0 25.0
2015-Sep-12 18:06N 41°24' E 009°15'0 0.4 24.8
2015-Sep-12 17:06N 41°24' E 009°15'0 0.2 24.8
2015-Sep-12 14:50N 41°24' E 009°16'0 0.0 24.7
2015-Sep-12 14:45N 41°24' E 009°16'118.1
2015-Sep-12 14:42N 41°25' E 009°17'0 0.0 24.7
2015-Sep-12 13:41N 41°25' E 009°17'0 0.0 24.6
2015-Sep-12 13:17N 41°25' E 009°17'0 0.0 24.6
2015-Sep-12 13:08N 41°25' E 009°17'0 0.0 24.6
2015-Sep-12 13:03N 41°25' E 009°17'0 0.0 24.6
2015-Sep-12 11:31N 41°25' E 009°17'0 7.0
2015-Sep-12 11:27N 41°25' E 009°17'0 0.0 35.5
2015-Sep-12 11:10N 41°25' E 009°17'0 0.2 24.5
2015-Sep-12 10:27N 41°25' E 009°17'112.6 24.6
2015-Sep-12 10:24N 41°24' E 009°18'0 0.0 24.6
2015-Sep-12 09:32N 41°24' E 009°18'1 0.5 24.6
2015-Sep-12 06:43N 41°23' E 009°19'1 0.8 24.5
2015-Sep-12 05:02N 41°22' E 009°20'1 0.7 24.7
2015-Sep-12 04:00N 41°22' E 009°21'0 1.2 24.7
2015-Sep-12 03:57N 41°21' E 009°21'0 1.1 24.7
2015-Sep-12 03:53N 41°21' E 009°21'3 0.4 24.7
2015-Sep-11 22:10N 41°21' E 009°24'0 3.6 24.8
2015-Sep-11 22:03N 41°21' E 009°25'0 0.4 24.8
2015-Sep-11 21:07N 41°21' E 009°25'2 0.6 24.9
2015-Sep-11 17:54N 41°22' E 009°27'   24.9

Dump ship's entire track history